Time;durP1;ratioP1;P1;durP2;ratioP2;P2;SDS_P1;SDS_P2;PMS_P1;PMS_P2;Temp;Humidity;BMP_temperature;BMP_pressure;BME280_temperature;BME280_humidity;BME280_pressure;Samples;Min_cycle;Max_cycle;Signal;HPM_P1;HPM_P2
2023/08/02 00:00:06;;;;;;;0.10;0.10;;;14.90;99.90;;;;;;5093093;28;20438;-92
2023/08/02 00:02:32;;;;;;;0.10;0.10;;;14.90;99.90;;;;;;5111663;28;20731;-91
2023/08/02 00:04:57;;;;;;;0.10;0.10;;;14.90;99.90;;;;;;5110210;27;20445;-90
2023/08/02 00:07:23;;;;;;;0.10;0.10;;;14.80;99.90;;;;;;5117133;27;20920;-90
2023/08/02 00:09:49;;;;;;;0.10;0.10;;;14.80;99.90;;;;;;5111791;28;20208;-89
2023/08/02 00:12:14;;;;;;;0.20;0.20;;;14.80;99.90;;;;;;5107101;28;20181;-89
2023/08/02 00:14:40;;;;;;;0.17;0.17;;;14.80;99.90;;;;;;5093456;28;20303;-89
2023/08/02 00:17:05;;;;;;;0.10;0.10;;;14.80;99.90;;;;;;5116415;27;20183;-91
2023/08/02 00:19:31;;;;;;;0.10;0.10;;;14.80;99.90;;;;;;5133195;27;20241;-90
2023/08/02 00:21:56;;;;;;;0.10;0.10;;;14.80;99.90;;;;;;5131350;27;20225;-88
2023/08/02 00:24:22;;;;;;;0.10;0.10;;;14.80;99.90;;;;;;5132925;27;20186;-88
2023/08/02 00:26:47;;;;;;;0.10;0.10;;;14.80;99.90;;;;;;5118741;27;20191;-90
2023/08/02 00:29:13;;;;;;;0.10;0.10;;;14.80;99.90;;;;;;5110538;28;20227;-89
2023/08/02 00:31:38;;;;;;;0.10;0.10;;;14.80;99.90;;;;;;5105616;28;20271;-89
2023/08/02 00:34:04;;;;;;;0.10;0.10;;;14.80;99.90;;;;;;5104520;28;20176;-90
2023/08/02 00:36:29;;;;;;;0.10;0.10;;;14.80;99.90;;;;;;5110318;28;20683;-91
2023/08/02 00:38:55;;;;;;;0.10;0.10;;;14.80;99.90;;;;;;5091727;28;20201;-92
2023/08/02 00:41:20;;;;;;;0.10;0.10;;;14.80;99.90;;;;;;5104260;28;20283;-90
2023/08/02 00:43:47;;;;;;;0.10;0.10;;;14.70;99.90;;;;;;5112381;28;20235;-91
2023/08/02 00:46:14;;;;;;;0.10;0.10;;;14.70;99.90;;;;;;5108030;28;20181;-89
2023/08/02 00:48:42;;;;;;;0.10;0.10;;;14.70;99.90;;;;;;5110319;28;20476;-90
2023/08/02 00:51:12;;;;;;;0.10;0.10;;;14.70;99.90;;;;;;5111356;28;20547;-90
2023/08/02 00:53:38;;;;;;;0.10;0.10;;;14.70;99.90;;;;;;5111555;28;20906;-89
2023/08/02 00:56:04;;;;;;;0.10;0.10;;;14.70;99.90;;;;;;5110845;27;20850;-90
2023/08/02 00:58:30;;;;;;;0.10;0.10;;;14.70;99.90;;;;;;5104515;28;20441;-90
2023/08/02 01:01:06;;;;;;;0.10;0.10;;;14.60;99.90;;;;;;5108336;28;20495;-90
2023/08/02 01:03:33;;;;;;;0.10;0.10;;;14.60;99.90;;;;;;5129272;27;20183;-89
2023/08/02 01:06:06;;;;;;;0.10;0.10;;;14.70;99.90;;;;;;5117002;27;20442;-90
2023/08/02 01:08:35;;;;;;;0.10;0.10;;;14.60;99.90;;;;;;5108335;28;20498;-89
2023/08/02 01:11:00;;;;;;;0.10;0.10;;;14.70;99.90;;;;;;5099809;28;21049;-89
2023/08/02 01:13:29;;;;;;;0.20;0.20;;;14.70;99.90;;;;;;5110074;28;20497;-90
2023/08/02 01:15:55;;;;;;;0.20;0.20;;;14.80;99.90;;;;;;5109498;28;20176;-90
2023/08/02 01:18:21;;;;;;;0.10;0.10;;;14.70;99.90;;;;;;5095096;28;20480;-89
2023/08/02 01:20:46;;;;;;;0.10;0.10;;;14.70;99.90;;;;;;5106221;28;20446;-88
2023/08/02 01:23:12;;;;;;;0.10;0.10;;;14.70;99.90;;;;;;5110962;28;20208;-90
2023/08/02 01:25:40;;;;;;;0.10;0.10;;;14.70;99.90;;;;;;5107805;28;20188;-88
2023/08/02 01:28:10;;;;;;;0.10;0.10;;;14.70;99.90;;;;;;5110660;28;20228;-88
2023/08/02 01:30:38;;;;;;;0.13;0.13;;;14.70;99.90;;;;;;5109062;28;20829;-91
2023/08/02 01:33:05;;;;;;;0.10;0.10;;;14.60;99.90;;;;;;5105674;28;20469;-90
2023/08/02 01:35:31;;;;;;;0.10;0.10;;;14.70;99.90;;;;;;5108586;28;20862;-89
2023/08/02 01:37:57;;;;;;;0.13;0.13;;;14.60;99.90;;;;;;5109957;28;20500;-90
2023/08/02 01:40:22;;;;;;;0.10;0.10;;;14.60;99.90;;;;;;5109847;28;20922;-90
2023/08/02 01:42:48;;;;;;;0.10;0.10;;;14.60;99.90;;;;;;5091975;28;20449;-89
2023/08/02 01:45:13;;;;;;;0.10;0.10;;;14.60;99.90;;;;;;5108809;28;20203;-90
2023/08/02 01:47:39;;;;;;;0.10;0.10;;;14.50;99.90;;;;;;5108629;28;20550;-89
2023/08/02 01:50:05;;;;;;;0.10;0.10;;;14.50;99.90;;;;;;5105603;28;20236;-88
2023/08/02 01:52:30;;;;;;;0.10;0.10;;;14.60;99.90;;;;;;5108986;28;20202;-90
2023/08/02 01:54:56;;;;;;;0.10;0.10;;;14.50;99.90;;;;;;5109585;28;20426;-91
2023/08/02 01:57:22;;;;;;;0.10;0.10;;;14.50;99.90;;;;;;5103217;28;20737;-90
2023/08/02 01:59:47;;;;;;;0.10;0.10;;;14.50;99.90;;;;;;5109904;28;20184;-89
2023/08/02 02:02:12;;;;;;;0.10;0.10;;;14.50;99.90;;;;;;5109031;28;20188;-89
2023/08/02 02:04:38;;;;;;;0.10;0.10;;;14.50;99.90;;;;;;5109688;28;20191;-90
2023/08/02 02:07:03;;;;;;;0.10;0.10;;;14.50;99.90;;;;;;5109126;28;20268;-91
2023/08/02 02:09:29;;;;;;;0.10;0.10;;;14.50;99.90;;;;;;5109950;28;20208;-92
2023/08/02 02:11:54;;;;;;;0.10;0.10;;;14.40;99.90;;;;;;5110841;28;20187;-92
2023/08/02 02:14:20;;;;;;;0.10;0.10;;;14.40;99.90;;;;;;5111219;28;20215;-91
2023/08/02 02:16:45;;;;;;;0.10;0.10;;;14.40;99.90;;;;;;5112402;28;20188;-90
2023/08/02 02:19:11;;;;;;;0.10;0.10;;;14.40;99.90;;;;;;5108831;28;20968;-91
2023/08/02 02:21:38;;;;;;;0.20;0.20;;;14.40;99.90;;;;;;5111989;28;20229;-90
2023/08/02 02:24:03;;;;;;;0.10;0.10;;;14.40;99.90;;;;;;5114077;28;20307;-91
2023/08/02 02:26:29;;;;;;;0.10;0.10;;;14.40;99.90;;;;;;5096799;28;20985;-89
2023/08/02 02:28:54;;;;;;;0.10;0.10;;;14.40;99.90;;;;;;5093830;28;20574;-88
2023/08/02 02:31:20;;;;;;;0.10;0.10;;;14.40;99.90;;;;;;5105685;28;20279;-90
2023/08/02 02:33:45;;;;;;;0.10;0.10;;;14.40;99.90;;;;;;5094774;28;20197;-90
2023/08/02 02:36:11;;;;;;;0.10;0.10;;;14.40;99.90;;;;;;5108232;28;20176;-90
2023/08/02 02:38:36;;;;;;;0.10;0.10;;;14.30;99.90;;;;;;5112629;28;20195;-90
2023/08/02 02:41:02;;;;;;;0.10;0.10;;;14.30;99.90;;;;;;5114740;28;20644;-91
2023/08/02 02:43:27;;;;;;;0.07;0.07;;;14.30;99.90;;;;;;5113440;28;20184;-91
2023/08/02 02:45:53;;;;;;;0.10;0.10;;;14.30;99.90;;;;;;5111837;28;21041;-90
2023/08/02 02:48:19;;;;;;;0.10;0.10;;;14.30;99.90;;;;;;5107506;28;20637;-91
2023/08/02 02:50:44;;;;;;;0.20;0.20;;;14.30;99.90;;;;;;5113073;28;20232;-91
2023/08/02 02:53:10;;;;;;;0.20;0.20;;;14.30;99.90;;;;;;5113225;28;20181;-91
2023/08/02 02:55:35;;;;;;;0.10;0.10;;;14.30;99.90;;;;;;5107992;28;20652;-90
2023/08/02 02:58:01;;;;;;;0.10;0.10;;;14.20;99.90;;;;;;5112062;28;21042;-91
2023/08/02 03:00:27;;;;;;;0.10;0.10;;;14.30;99.90;;;;;;5110315;28;20188;-90
2023/08/02 03:02:54;;;;;;;0.20;0.20;;;14.30;99.90;;;;;;5114650;27;20214;-92
2023/08/02 03:05:20;;;;;;;0.10;0.10;;;14.30;99.90;;;;;;5111582;28;20457;-92
2023/08/02 03:07:46;;;;;;;0.10;0.10;;;14.40;99.90;;;;;;5113390;28;20446;-90
2023/08/02 03:10:11;;;;;;;0.10;0.10;;;14.30;99.90;;;;;;5112382;27;20215;-91
2023/08/02 03:12:37;;;;;;;0.10;0.10;;;14.30;99.90;;;;;;5106900;28;20442;-90
2023/08/02 03:15:03;;;;;;;0.10;0.10;;;14.30;99.90;;;;;;5108037;28;20187;-90
2023/08/02 03:17:28;;;;;;;0.10;0.10;;;14.30;99.90;;;;;;5107640;28;20218;-90
2023/08/02 03:19:54;;;;;;;0.10;0.10;;;14.30;99.90;;;;;;5104013;28;20457;-89
2023/08/02 03:22:19;;;;;;;0.10;0.10;;;14.20;99.90;;;;;;5110761;28;20191;-92
2023/08/02 03:24:45;;;;;;;0.10;0.10;;;14.30;99.90;;;;;;5111402;28;20196;-90
2023/08/02 03:27:10;;;;;;;0.10;0.10;;;14.30;99.90;;;;;;5109794;28;20701;-90
2023/08/02 03:29:36;;;;;;;0.10;0.10;;;14.30;99.90;;;;;;5105647;28;20302;-90
2023/08/02 03:32:02;;;;;;;0.10;0.10;;;14.30;99.90;;;;;;5108011;28;20181;-91
2023/08/02 03:34:28;;;;;;;0.00;0.00;;;14.40;99.90;;;;;;5111460;28;20288;-90
2023/08/02 03:36:53;;;;;;;0.10;0.10;;;14.40;99.90;;;;;;5111982;27;22518;-92
2023/08/02 03:39:19;;;;;;;0.10;0.10;;;14.40;99.90;;;;;;5112853;28;20198;-90
2023/08/02 03:41:44;;;;;;;0.10;0.10;;;14.40;99.90;;;;;;5107496;28;20181;-91
2023/08/02 03:44:10;;;;;;;0.10;0.10;;;14.40;99.90;;;;;;5091558;28;20185;-91
2023/08/02 03:46:35;;;;;;;0.10;0.10;;;14.40;99.90;;;;;;5098960;28;20334;-90
2023/08/02 03:49:01;;;;;;;0.10;0.10;;;14.40;99.90;;;;;;5105343;28;20314;-90
2023/08/02 03:51:27;;;;;;;0.07;0.07;;;14.40;99.90;;;;;;5096205;28;20187;-91
2023/08/02 03:53:52;;;;;;;0.00;0.00;;;14.40;99.90;;;;;;5110886;27;20647;-90
2023/08/02 03:56:18;;;;;;;0.10;0.10;;;14.40;99.90;;;;;;5105255;28;20457;-91
2023/08/02 03:58:43;;;;;;;0.10;0.10;;;14.40;99.90;;;;;;5102883;28;20187;-91
2023/08/02 04:01:09;;;;;;;0.10;0.10;;;14.40;99.90;;;;;;5111343;28;20176;-90
2023/08/02 04:03:34;;;;;;;0.10;0.10;;;14.50;99.90;;;;;;5107875;28;20176;-90
2023/08/02 04:06:00;;;;;;;0.10;0.10;;;14.50;99.90;;;;;;5101295;28;20648;-89
2023/08/02 04:08:25;;;;;;;0.10;0.10;;;14.50;99.90;;;;;;5100133;28;20296;-91
2023/08/02 04:10:51;;;;;;;0.10;0.10;;;14.50;99.90;;;;;;5107648;28;20247;-91
2023/08/02 04:13:17;;;;;;;0.10;0.10;;;14.60;99.90;;;;;;5099905;28;20241;-90
2023/08/02 04:15:42;;;;;;;0.10;0.10;;;14.60;99.90;;;;;;5109532;28;20627;-89
2023/08/02 04:18:08;;;;;;;0.10;0.10;;;14.60;99.90;;;;;;5115009;27;20679;-91
2023/08/02 04:20:38;;;;;;;0.10;0.10;;;14.60;99.90;;;;;;5112728;27;20196;-90
2023/08/02 04:23:03;;;;;;;0.20;0.20;;;14.60;99.90;;;;;;5111290;27;20195;-90
2023/08/02 04:25:29;;;;;;;0.10;0.10;;;14.70;99.90;;;;;;5110647;28;20441;-91
2023/08/02 04:27:54;;;;;;;0.10;0.10;;;14.70;99.90;;;;;;5109719;28;20184;-91
2023/08/02 04:30:20;;;;;;;0.10;0.10;;;14.70;99.90;;;;;;5109524;28;20949;-89
2023/08/02 04:32:45;;;;;;;0.10;0.10;;;14.70;99.90;;;;;;5110753;28;20184;-90
2023/08/02 04:35:11;;;;;;;0.10;0.10;;;14.70;99.90;;;;;;5111747;28;20704;-91
2023/08/02 04:37:36;;;;;;;0.10;0.10;;;14.70;99.90;;;;;;5109867;28;20214;-91
2023/08/02 04:40:02;;;;;;;0.10;0.10;;;14.70;99.90;;;;;;5108272;28;20779;-92
2023/08/02 04:42:27;;;;;;;0.10;0.10;;;14.70;99.90;;;;;;5109496;28;20647;-90
2023/08/02 04:44:53;;;;;;;0.10;0.10;;;14.70;99.90;;;;;;5109222;28;20180;-91
2023/08/02 04:47:18;;;;;;;0.10;0.10;;;14.70;99.90;;;;;;5106952;28;20212;-90
2023/08/02 04:49:44;;;;;;;0.10;0.10;;;14.80;99.90;;;;;;5108992;28;20235;-91
2023/08/02 04:52:09;;;;;;;0.10;0.10;;;14.80;99.90;;;;;;5107103;28;20199;-90
2023/08/02 04:54:35;;;;;;;0.10;0.10;;;14.90;99.90;;;;;;5107349;28;20889;-92
2023/08/02 04:57:00;;;;;;;0.00;0.00;;;14.90;99.90;;;;;;5106231;28;20180;-90
2023/08/02 04:59:26;;;;;;;0.00;0.00;;;15.00;99.90;;;;;;5104955;27;20299;-90
2023/08/02 05:01:51;;;;;;;0.00;0.00;;;15.00;99.90;;;;;;5088670;28;20185;-90
2023/08/02 05:04:17;;;;;;;0.00;0.00;;;15.00;99.90;;;;;;5103859;28;20210;-90
2023/08/02 05:06:42;;;;;;;0.00;0.00;;;15.00;99.90;;;;;;5098797;28;20528;-91
2023/08/02 05:09:08;;;;;;;0.00;0.00;;;15.00;99.90;;;;;;5101520;28;20200;-90
2023/08/02 05:11:34;;;;;;;0.10;0.10;;;15.00;99.90;;;;;;5101444;27;20698;-88
2023/08/02 05:14:00;;;;;;;0.00;0.00;;;15.10;99.90;;;;;;5107919;28;20266;-89
2023/08/02 05:16:26;;;;;;;0.10;0.10;;;15.20;99.90;;;;;;5104077;28;20205;-90
2023/08/02 05:18:52;;;;;;;0.10;0.10;;;15.30;99.90;;;;;;5104144;28;20194;-90
2023/08/02 05:21:19;;;;;;;0.10;0.10;;;15.30;99.90;;;;;;5106188;28;20445;-89
2023/08/02 05:23:45;;;;;;;0.20;0.20;;;15.40;99.90;;;;;;5108861;28;20254;-90
2023/08/02 05:26:12;;;;;;;0.10;0.10;;;15.30;99.90;;;;;;5108024;28;20838;-89
2023/08/02 05:28:38;;;;;;;0.10;0.10;;;15.30;99.90;;;;;;5098367;28;20917;-92
2023/08/02 05:31:10;;;;;;;0.10;0.10;;;15.30;99.90;;;;;;5104977;28;20858;-92
2023/08/02 05:33:35;;;;;;;0.00;0.00;;;15.30;99.90;;;;;;5099335;28;20527;-91
2023/08/02 05:36:01;;;;;;;0.00;0.00;;;15.30;99.90;;;;;;5106510;27;20525;-89
2023/08/02 05:38:26;;;;;;;0.10;0.10;;;15.40;99.90;;;;;;5107374;28;20180;-89
2023/08/02 05:40:52;;;;;;;0.10;0.10;;;15.40;99.90;;;;;;5108166;28;20791;-89
2023/08/02 05:43:17;;;;;;;0.10;0.10;;;15.40;99.90;;;;;;5105390;28;20709;-90
2023/08/02 05:45:43;;;;;;;0.00;0.00;;;15.50;99.90;;;;;;5102954;28;20192;-89
2023/08/02 05:48:08;;;;;;;0.10;0.10;;;15.50;99.90;;;;;;5104987;28;20218;-89
2023/08/02 05:50:34;;;;;;;0.10;0.10;;;15.50;99.90;;;;;;5109164;28;20280;-89
2023/08/02 05:52:59;;;;;;;0.00;0.00;;;15.70;99.90;;;;;;5108904;28;20257;-90
2023/08/02 05:55:25;;;;;;;0.00;0.00;;;15.80;99.90;;;;;;5107271;28;20562;-87
2023/08/02 05:57:51;;;;;;;0.00;0.00;;;15.70;99.90;;;;;;5103243;28;20207;-89
2023/08/02 06:00:17;;;;;;;0.00;0.00;;;15.90;99.90;;;;;;5106619;28;20492;-89
2023/08/02 06:02:48;;;;;;;0.00;0.00;;;16.00;99.90;;;;;;5104135;28;20173;-90
2023/08/02 06:05:13;;;;;;;0.00;0.00;;;16.20;99.90;;;;;;5101735;28;20185;-89
2023/08/02 06:07:39;;;;;;;0.00;0.00;;;16.30;99.90;;;;;;5107276;28;20428;-90
2023/08/02 06:10:05;;;;;;;0.00;0.00;;;16.30;99.90;;;;;;5106285;28;20300;-89
2023/08/02 06:12:30;;;;;;;0.00;0.00;;;16.30;99.90;;;;;;5102239;28;20697;-90
2023/08/02 06:14:56;;;;;;;0.00;0.00;;;16.30;99.90;;;;;;5096391;28;20239;-90
2023/08/02 06:17:21;;;;;;;0.00;0.00;;;16.30;99.90;;;;;;5107940;28;20697;-89
2023/08/02 06:19:47;;;;;;;0.00;0.00;;;16.30;99.90;;;;;;5109565;28;20197;-88
2023/08/02 06:22:13;;;;;;;0.00;0.00;;;16.20;99.90;;;;;;5106011;28;20231;-90
2023/08/02 06:24:40;;;;;;;0.00;0.00;;;16.20;99.90;;;;;;5098043;28;20188;-90
2023/08/02 06:27:06;;;;;;;0.00;0.00;;;16.20;99.90;;;;;;5101652;28;20512;-94
2023/08/02 06:29:31;;;;;;;0.00;0.00;;;16.10;99.90;;;;;;5097039;28;20572;-94
2023/08/02 06:31:57;;;;;;;0.00;0.00;;;16.10;99.90;;;;;;5104520;28;20183;-95
2023/08/02 06:34:22;;;;;;;0.00;0.00;;;16.00;99.90;;;;;;5102418;28;20211;-90
2023/08/02 06:36:48;;;;;;;0.00;0.00;;;16.10;99.90;;;;;;5106446;28;20237;-93
2023/08/02 06:39:13;;;;;;;0.00;0.00;;;16.20;99.90;;;;;;5099726;28;20185;-91
2023/08/02 06:41:39;;;;;;;0.10;0.10;;;16.30;99.90;;;;;;5100721;28;20191;-93
2023/08/02 06:44:04;;;;;;;0.00;0.00;;;16.40;99.90;;;;;;5105113;28;20189;-92
2023/08/02 06:46:33;;;;;;;0.00;0.00;;;16.60;99.90;;;;;;5101637;28;20594;-91
2023/08/02 06:48:58;;;;;;;0.10;0.10;;;16.60;99.90;;;;;;5107944;28;20478;-93
2023/08/02 06:51:24;;;;;;;0.00;0.00;;;16.60;99.90;;;;;;5108359;28;20957;-89
2023/08/02 06:53:50;;;;;;;0.00;0.00;;;16.60;99.90;;;;;;5102925;28;20184;-89
2023/08/02 06:56:17;;;;;;;0.10;0.10;;;16.50;99.90;;;;;;5100959;28;20257;-89
2023/08/02 06:58:43;;;;;;;0.00;0.00;;;16.40;99.90;;;;;;5106321;28;20965;-90
2023/08/02 07:01:27;;;;;;;0.00;0.00;;;16.20;99.90;;;;;;5109593;28;20520;-90
2023/08/02 07:03:52;;;;;;;0.00;0.00;;;16.40;99.90;;;;;;5107559;28;20429;-87
2023/08/02 07:06:20;;;;;;;0.00;0.00;;;16.80;99.90;;;;;;5125542;27;20445;-88
2023/08/02 07:08:46;;;;;;;0.10;0.10;;;17.30;99.90;;;;;;5114099;27;20678;-88
2023/08/02 07:11:12;;;;;;;0.20;0.20;;;17.10;99.90;;;;;;5107884;28;20445;-89
2023/08/02 07:13:41;;;;;;;0.10;0.10;;;17.20;99.90;;;;;;5097351;28;20448;-92
2023/08/02 07:16:06;;;;;;;0.00;0.00;;;17.30;99.90;;;;;;5110248;28;20189;-89
2023/08/02 07:18:32;;;;;;;0.00;0.00;;;17.40;99.90;;;;;;5110701;28;20499;-90
2023/08/02 07:21:08;;;;;;;0.00;0.00;;;17.30;99.90;;;;;;5108029;27;20184;-90
2023/08/02 07:23:34;;;;;;;0.00;0.00;;;17.30;99.90;;;;;;5113538;28;20220;-89
2023/08/02 07:26:00;;;;;;;0.00;0.00;;;17.40;99.90;;;;;;5110618;28;20501;-90
2023/08/02 07:28:26;;;;;;;0.10;0.10;;;17.30;99.90;;;;;;5109545;28;21004;-89
2023/08/02 07:30:51;;;;;;;0.20;0.20;;;17.40;99.90;;;;;;5108937;28;20220;-91
2023/08/02 07:33:17;;;;;;;0.30;0.30;;;17.40;99.90;;;;;;5110805;28;20205;-89
2023/08/02 07:35:46;;;;;;;0.10;0.10;;;17.30;99.90;;;;;;5111988;27;20570;-90
2023/08/02 07:38:12;;;;;;;0.00;0.00;;;17.30;99.90;;;;;;5100121;28;20181;-90
2023/08/02 07:40:38;;;;;;;0.10;0.10;;;17.40;99.90;;;;;;5110678;28;20450;-91
2023/08/02 07:43:04;;;;;;;0.00;0.00;;;17.40;99.90;;;;;;5111525;28;20453;-89
2023/08/02 07:45:29;;;;;;;0.00;0.00;;;17.30;99.90;;;;;;5108455;28;20177;-92
2023/08/02 07:47:55;;;;;;;0.00;0.00;;;17.40;99.90;;;;;;5101519;28;20502;-88
2023/08/02 07:50:20;;;;;;;0.00;0.00;;;17.40;99.90;;;;;;5107358;28;20231;-92
2023/08/02 07:52:46;;;;;;;0.00;0.00;;;17.50;99.90;;;;;;5101626;28;20270;-89
2023/08/02 07:55:11;;;;;;;0.00;0.00;;;17.70;99.90;;;;;;5110272;27;20199;-95
2023/08/02 07:57:37;;;;;;;0.00;0.00;;;17.80;99.90;;;;;;5110131;28;20263;-96
2023/08/02 08:00:03;;;;;;;0.00;0.00;;;17.90;99.90;;;;;;5119196;28;20180;-96
2023/08/02 08:02:28;;;;;;;0.00;0.00;;;18.00;99.90;;;;;;5107690;28;20184;-95
2023/08/02 08:04:56;;;;;;;0.00;0.00;;;18.00;99.90;;;;;;5097942;28;20443;-88
2023/08/02 08:07:22;;;;;;;0.00;0.00;;;17.90;99.90;;;;;;5115911;27;20273;-96
2023/08/02 08:09:51;;;;;;;0.00;0.00;;;17.80;99.90;;;;;;5117259;27;20481;-96
2023/08/02 08:12:16;;;;;;;0.00;0.00;;;17.60;99.90;;;;;;5115527;27;20462;-91
2023/08/02 08:14:42;;;;;;;0.00;0.00;;;17.50;99.90;;;;;;5123436;27;20991;-94
2023/08/02 08:17:08;;;;;;;0.00;0.00;;;17.40;99.90;;;;;;5113700;27;20383;-92
2023/08/02 08:19:34;;;;;;;0.00;0.00;;;17.20;99.90;;;;;;5113968;27;20438;-92
2023/08/02 08:21:59;;;;;;;0.00;0.00;;;16.90;99.90;;;;;;5114061;27;20184;-88
2023/08/02 08:24:25;;;;;;;0.00;0.00;;;16.80;99.90;;;;;;5113376;27;20257;-90
2023/08/02 08:26:54;;;;;;;0.10;0.10;;;16.80;99.90;;;;;;5110530;27;20699;-90
2023/08/02 08:29:19;;;;;;;0.00;0.00;;;17.00;99.90;;;;;;5110209;27;20208;-88
2023/08/02 08:31:45;;;;;;;0.00;0.00;;;17.20;99.90;;;;;;5104036;28;20945;-88
2023/08/02 08:34:13;;;;;;;0.00;0.00;;;17.40;99.90;;;;;;5101752;28;20227;-85
2023/08/02 08:36:39;;;;;;;0.00;0.00;;;17.80;99.90;;;;;;5109830;27;20477;-92
2023/08/02 08:39:05;;;;;;;0.00;0.00;;;18.00;99.90;;;;;;5116065;27;20457;-90
2023/08/02 08:41:30;;;;;;;0.00;0.00;;;18.00;99.90;;;;;;5106547;28;20445;-91
2023/08/02 08:43:56;;;;;;;0.00;0.00;;;18.20;99.90;;;;;;5108221;28;20438;-90
2023/08/02 08:46:23;;;;;;;0.00;0.00;;;18.20;99.90;;;;;;5105228;28;20197;-92
2023/08/02 08:48:48;;;;;;;0.00;0.00;;;17.90;99.90;;;;;;5104778;28;20180;-95
2023/08/02 08:51:19;;;;;;;0.00;0.00;;;17.70;99.90;;;;;;5103863;28;20515;-90
2023/08/02 08:53:45;;;;;;;0.00;0.00;;;17.70;99.90;;;;;;5106720;28;21938;-90
2023/08/02 08:56:11;;;;;;;0.00;0.00;;;18.00;99.90;;;;;;5100851;27;20539;-91
2023/08/02 08:58:37;;;;;;;0.00;0.00;;;18.10;99.90;;;;;;5108615;28;20791;-89
2023/08/02 09:01:04;;;;;;;0.00;0.00;;;18.60;99.90;;;;;;5096615;28;20442;-91
2023/08/02 09:03:32;;;;;;;0.00;0.00;;;19.10;99.90;;;;;;5094882;28;20435;-91
2023/08/02 09:06:02;;;;;;;0.00;0.00;;;19.20;99.90;;;;;;5109813;28;20474;-90
2023/08/02 09:08:28;;;;;;;0.00;0.00;;;19.10;99.90;;;;;;5106957;28;20525;-92
2023/08/02 09:10:53;;;;;;;0.00;0.00;;;19.10;99.90;;;;;;5117689;27;21061;-91
2023/08/02 09:13:23;;;;;;;0.00;0.00;;;19.30;99.90;;;;;;5103281;28;20644;-92
2023/08/02 09:16:09;;;;;;;0.00;0.00;;;19.00;99.90;;;;;;5105470;28;20188;-93
2023/08/02 09:18:37;;;;;;;0.00;0.00;;;18.80;99.90;;;;;;5109375;28;20952;-91
2023/08/02 09:21:03;;;;;;;0.00;0.00;;;18.50;99.90;;;;;;5105649;28;20434;-92
2023/08/02 09:23:29;;;;;;;0.00;0.00;;;18.70;99.90;;;;;;5109239;28;20521;-91
2023/08/02 09:26:18;;;;;;;0.00;0.00;;;18.90;99.90;;;;;;5101501;28;21057;-89
2023/08/02 09:29:01;;;;;;;0.00;0.00;;;18.80;99.90;;;;;;5099676;28;20206;-90
2023/08/02 09:31:28;;;;;;;0.00;0.00;;;18.90;99.90;;;;;;5107124;28;20655;-91
2023/08/02 09:33:54;;;;;;;0.00;0.00;;;19.20;99.90;;;;;;5109440;27;20484;-91
2023/08/02 09:36:26;;;;;;;0.00;0.00;;;19.50;99.90;;;;;;5102692;28;21182;-93
2023/08/02 09:39:03;;;;;;;0.00;0.00;;;19.50;99.90;;;;;;5096981;28;20446;-90
2023/08/02 09:41:31;;;;;;;0.00;0.00;;;19.50;99.90;;;;;;5106099;27;21122;-90
2023/08/02 09:43:57;;;;;;;0.00;0.00;;;19.60;99.90;;;;;;5108629;28;20974;-90
2023/08/02 09:46:28;;;;;;;0.00;0.00;;;19.50;99.90;;;;;;5100139;28;20427;-90
2023/08/02 09:48:55;;;;;;;0.00;0.00;;;19.10;99.90;;;;;;5098642;28;20471;-92
2023/08/02 09:51:21;;;;;;;0.10;0.10;;;18.80;99.90;;;;;;5107154;28;20960;-91
2023/08/02 09:53:56;;;;;;;0.00;0.00;;;18.60;99.90;;;;;;5108637;28;20433;-92
2023/08/02 09:56:25;;;;;;;0.10;0.10;;;18.50;99.90;;;;;;5110406;28;20196;-89
2023/08/02 09:58:54;;;;;;;0.10;0.10;;;18.40;99.90;;;;;;5106823;28;20537;-91
2023/08/02 10:01:22;;;;;;;0.10;0.10;;;18.20;99.90;;;;;;5106914;28;20674;-89
2023/08/02 10:03:52;;;;;;;0.10;0.10;;;18.20;99.90;;;;;;5108773;28;20729;-89
2023/08/02 10:06:19;;;;;;;0.10;0.10;;;18.30;99.90;;;;;;5104037;28;20434;-90
2023/08/02 10:08:47;;;;;;;0.10;0.10;;;18.50;99.90;;;;;;5107004;28;20434;-89
2023/08/02 10:11:13;;;;;;;0.10;0.10;;;18.70;99.90;;;;;;5107440;28;20449;-89
2023/08/02 10:13:41;;;;;;;0.10;0.10;;;19.90;99.90;;;;;;5111411;28;20429;-87
2023/08/02 10:16:07;;;;;;;0.00;0.00;;;20.40;99.90;;;;;;5116708;27;20446;-89
2023/08/02 10:18:35;;;;;;;0.00;0.00;;;20.50;99.90;;;;;;5108625;28;20445;-89
2023/08/02 10:21:01;;;;;;;0.00;0.00;;;20.20;99.90;;;;;;5108675;28;20256;-89
2023/08/02 10:23:27;;;;;;;0.00;0.00;;;19.90;99.90;;;;;;5107103;28;20532;-88
2023/08/02 10:25:53;;;;;;;0.00;0.00;;;19.60;99.90;;;;;;5107954;28;21055;-89
2023/08/02 10:28:20;;;;;;;0.00;0.00;;;19.50;99.90;;;;;;5107921;28;20207;-90
2023/08/02 10:30:46;;;;;;;0.10;0.10;;;19.50;99.90;;;;;;5107055;28;20999;-89
2023/08/02 10:33:18;;;;;;;0.00;0.00;;;19.40;99.90;;;;;;5108086;28;20472;-89
2023/08/02 10:36:01;;;;;;;0.00;0.00;;;19.60;99.90;;;;;;5107744;28;20188;-87
2023/08/02 10:38:39;;;;;;;0.00;0.00;;;19.70;99.90;;;;;;5098708;28;20464;-88
2023/08/02 10:41:10;;;;;;;0.00;0.00;;;19.60;99.90;;;;;;5108042;28;20481;-88
2023/08/02 10:43:54;;;;;;;0.00;0.00;;;19.70;99.90;;;;;;5111596;28;20449;-88
2023/08/02 10:46:22;;;;;;;0.00;0.00;;;19.70;99.90;;;;;;5103523;28;20443;-88
2023/08/02 10:48:49;;;;;;;0.00;0.00;;;19.80;99.90;;;;;;5108255;28;20441;-89
2023/08/02 10:51:27;;;;;;;0.00;0.00;;;20.00;99.90;;;;;;5113354;27;20514;-89
2023/08/02 10:54:14;;;;;;;0.00;0.00;;;19.90;99.90;;;;;;5112838;28;20588;-91
2023/08/02 10:56:52;;;;;;;0.10;0.10;;;19.90;99.90;;;;;;5109219;28;20445;-90
2023/08/02 10:59:37;;;;;;;0.00;0.00;;;19.80;99.90;;;;;;5109604;27;20482;-89
2023/08/02 11:02:08;;;;;;;0.00;0.00;;;19.80;99.90;;;;;;5105262;28;20498;-89
2023/08/02 11:04:37;;;;;;;0.00;0.00;;;19.70;99.90;;;;;;5110678;27;21041;-90
2023/08/02 11:07:21;;;;;;;0.00;0.00;;;19.70;99.90;;;;;;5110106;28;20449;-89
2023/08/02 11:09:56;;;;;;;0.00;0.00;;;19.60;99.90;;;;;;5112351;28;20904;-89
2023/08/02 11:12:22;;;;;;;0.00;0.00;;;19.60;99.90;;;;;;5105696;28;20498;-88
2023/08/02 11:14:52;;;;;;;0.00;0.00;;;19.60;99.90;;;;;;5106446;28;20442;-87
2023/08/02 11:17:23;;;;;;;0.00;0.00;;;19.90;99.90;;;;;;5102702;28;20929;-89
2023/08/02 11:19:50;;;;;;;0.00;0.00;;;20.30;99.90;;;;;;5110300;28;20434;-87
2023/08/02 11:22:17;;;;;;;0.00;0.00;;;20.30;99.90;;;;;;5106411;28;20427;-88
2023/08/02 11:24:50;;;;;;;0.00;0.00;;;20.10;99.90;;;;;;5108783;28;20572;-88
2023/08/02 11:27:26;;;;;;;0.00;0.00;;;20.00;99.90;;;;;;5107537;28;20442;-87
2023/08/02 11:30:07;;;;;;;0.00;0.00;;;20.10;99.90;;;;;;5103630;28;20830;-88
2023/08/02 11:32:34;;;;;;;0.00;0.00;;;20.10;99.90;;;;;;5110305;27;20422;-87
2023/08/02 11:35:02;;;;;;;0.00;0.00;;;20.20;99.90;;;;;;5110195;28;20442;-88
2023/08/02 11:37:28;;;;;;;0.10;0.10;;;20.40;99.90;;;;;;5110205;28;20469;-87
2023/08/02 11:39:58;;;;;;;0.00;0.00;;;20.50;99.90;;;;;;5110174;28;20466;-90
2023/08/02 11:42:25;;;;;;;0.00;0.00;;;20.50;99.90;;;;;;5113939;28;20189;-89
2023/08/02 11:44:54;;;;;;;0.00;0.00;;;20.40;99.90;;;;;;5112834;28;20449;-92
2023/08/02 11:47:21;;;;;;;0.00;0.00;;;20.20;99.90;;;;;;5110586;28;20445;-90
2023/08/02 11:49:51;;;;;;;0.00;0.00;;;20.20;99.90;;;;;;5114032;28;20473;-90
2023/08/02 11:52:33;;;;;;;0.00;0.00;;;20.10;99.90;;;;;;5111007;28;20453;-90
2023/08/02 11:54:59;;;;;;;0.10;0.10;;;20.00;99.90;;;;;;5113698;28;20955;-90
2023/08/02 11:57:26;;;;;;;0.00;0.00;;;19.90;99.90;;;;;;5120943;27;20440;-90
2023/08/02 11:59:56;;;;;;;0.00;0.00;;;19.80;99.90;;;;;;5099547;28;20537;-95
2023/08/02 12:02:22;;;;;;;0.00;0.00;;;19.80;99.90;;;;;;5111608;28;20511;-92
2023/08/02 12:04:48;;;;;;;0.00;0.00;;;19.60;99.90;;;;;;5111352;28;20953;-89
2023/08/02 12:07:23;;;;;;;0.00;0.00;;;19.50;99.90;;;;;;5110345;28;20455;-92
2023/08/02 12:09:49;;;;;;;0.00;0.00;;;19.40;99.90;;;;;;5111987;27;20974;-92
2023/08/02 12:12:14;;;;;;;0.10;0.10;;;19.30;99.90;;;;;;5109796;28;20457;-92
2023/08/02 12:14:40;;;;;;;0.00;0.00;;;19.20;99.90;;;;;;5107922;28;20329;-91
2023/08/02 12:17:14;;;;;;;0.10;0.10;;;19.10;99.90;;;;;;5108159;28;20188;-90
2023/08/02 12:19:40;;;;;;;0.00;0.00;;;19.10;99.90;;;;;;5105399;27;20690;-90
2023/08/02 12:22:06;;;;;;;0.10;0.10;;;19.10;99.90;;;;;;5106527;27;20472;-88
2023/08/02 12:24:32;;;;;;;0.10;0.10;;;19.10;99.90;;;;;;5109323;27;21193;-91
2023/08/02 12:27:14;;;;;;;0.00;0.00;;;19.20;99.90;;;;;;5114110;27;20185;-91
2023/08/02 12:29:41;;;;;;;0.00;0.00;;;19.20;99.90;;;;;;5105909;28;20573;-88
2023/08/02 12:32:08;;;;;;;0.10;0.10;;;19.30;99.90;;;;;;5101918;28;20465;-90
2023/08/02 12:34:36;;;;;;;0.10;0.10;;;19.30;99.90;;;;;;5109636;28;21005;-89
2023/08/02 12:37:02;;;;;;;0.00;0.00;;;19.30;99.90;;;;;;5105106;28;20441;-89
2023/08/02 12:39:28;;;;;;;0.10;0.10;;;19.40;99.90;;;;;;5105205;28;20553;-91
2023/08/02 12:41:53;;;;;;;0.00;0.00;;;19.40;99.90;;;;;;5105382;28;20437;-89
2023/08/02 12:44:19;;;;;;;0.10;0.10;;;19.40;99.90;;;;;;5105507;28;20185;-92
2023/08/02 12:46:47;;;;;;;0.10;0.10;;;19.50;99.90;;;;;;5105997;28;20186;-90